Time;durP1;ratioP1;P1;durP2;ratioP2;P2;SDS_P1;SDS_P2;PMS_P1;PMS_P2;Temp;Humidity;BMP_temperature;BMP_pressure;BME280_temperature;BME280_humidity;BME280_pressure;Samples;Min_cycle;Max_cycle;Signal;HPM_P1;HPM_P2
2022/11/21 00:00:41;;;;;;;27.50;9.15;;;;;;;6.93;100.00;99774.91;4977879;28;20415;-80
2022/11/21 00:03:10;;;;;;;25.83;8.65;;;;;;;6.84;100.00;99781.00;4977034;28;20054;-80
2022/11/21 00:05:39;;;;;;;24.00;8.88;;;;;;;6.82;100.00;99790.75;4981099;28;20133;-80
2022/11/21 00:08:06;;;;;;;25.05;8.75;;;;;;;6.76;100.00;99780.94;4977978;28;20401;-81
2022/11/21 00:10:33;;;;;;;18.65;7.03;;;;;;;6.75;100.00;99788.91;4976929;28;20070;-80
2022/11/21 00:13:00;;;;;;;26.50;9.70;;;;;;;6.77;100.00;99786.97;4977227;28;20133;-81
2022/11/21 00:15:28;;;;;;;22.65;9.43;;;;;;;6.79;100.00;99787.63;4976548;28;20074;-81
2022/11/21 00:17:55;;;;;;;23.40;7.88;;;;;;;6.81;100.00;99780.50;4977224;28;20047;-81
2022/11/21 00:20:22;;;;;;;22.05;7.07;;;;;;;6.83;100.00;99771.56;4976913;28;20098;-81
2022/11/21 00:22:49;;;;;;;23.20;8.45;;;;;;;6.74;100.00;99769.88;4976260;28;20075;-80
2022/11/21 00:25:16;;;;;;;18.48;7.50;;;;;;;6.70;100.00;99771.16;4977761;28;20097;-81
2022/11/21 00:27:42;;;;;;;24.45;6.22;;;;;;;6.65;100.00;99776.00;4978203;28;20050;-80
2022/11/21 00:30:11;;;;;;;19.65;6.32;;;;;;;6.54;100.00;99771.06;4977111;28;20130;-80
2022/11/21 00:32:39;;;;;;;22.20;6.70;;;;;;;6.49;100.00;99779.31;4976334;28;20590;-80
2022/11/21 00:35:07;;;;;;;22.83;7.07;;;;;;;6.46;100.00;99789.19;4976625;28;20444;-81
2022/11/21 00:37:34;;;;;;;24.35;6.18;;;;;;;6.41;100.00;99789.63;4977203;28;20074;-80
2022/11/21 00:40:01;;;;;;;23.33;6.63;;;;;;;6.46;100.00;99784.00;4977095;28;20047;-81
2022/11/21 00:42:29;;;;;;;18.75;5.35;;;;;;;6.44;100.00;99775.53;4975301;28;20142;-80
2022/11/21 00:44:56;;;;;;;19.80;5.88;;;;;;;6.48;100.00;99785.47;4976134;28;20085;-81
2022/11/21 00:47:25;;;;;;;23.83;6.13;;;;;;;6.48;100.00;99784.66;4978082;28;20086;-80
2022/11/21 00:49:54;;;;;;;21.27;5.93;;;;;;;6.51;100.00;99785.16;4977897;28;20054;-79
2022/11/21 00:52:26;;;;;;;24.58;6.07;;;;;;;6.51;100.00;99789.56;4977640;28;20501;-79
2022/11/21 00:54:55;;;;;;;22.70;6.38;;;;;;;6.47;100.00;99780.41;4978261;28;20065;-80
2022/11/21 00:57:25;;;;;;;19.08;6.30;;;;;;;6.47;100.00;99790.81;4979314;28;20046;-79
2022/11/21 00:59:53;;;;;;;20.38;6.93;;;;;;;6.51;100.00;99792.16;4981356;28;20138;-77
2022/11/21 01:02:21;;;;;;;23.23;8.02;;;;;;;6.58;100.00;99793.19;4978568;28;20046;-81
2022/11/21 01:04:48;;;;;;;20.17;7.38;;;;;;;6.65;100.00;99799.38;4979694;28;20050;-80
2022/11/21 01:07:16;;;;;;;21.15;7.40;;;;;;;6.57;100.00;99788.97;4979467;28;20105;-79
2022/11/21 01:09:43;;;;;;;19.58;6.72;;;;;;;6.46;100.00;99784.00;4977979;28;20126;-79
2022/11/21 01:12:09;;;;;;;25.17;6.38;;;;;;;6.41;100.00;99788.81;4978710;28;20086;-79
2022/11/21 01:14:36;;;;;;;22.58;6.18;;;;;;;6.40;100.00;99785.41;4978257;28;20054;-79
2022/11/21 01:17:02;;;;;;;24.63;6.13;;;;;;;6.32;100.00;99793.94;4977298;28;20050;-78
2022/11/21 01:19:29;;;;;;;19.27;5.78;;;;;;;6.33;100.00;99800.75;4977331;28;20047;-79
2022/11/21 01:21:56;;;;;;;25.33;6.10;;;;;;;6.34;100.00;99796.38;4977221;28;20470;-79
2022/11/21 01:24:24;;;;;;;18.10;5.78;;;;;;;6.44;100.00;99791.13;4977063;28;20059;-79
2022/11/21 01:26:52;;;;;;;18.17;6.07;;;;;;;6.42;100.00;99788.66;4978010;28;20109;-78
2022/11/21 01:29:19;;;;;;;15.35;5.95;;;;;;;6.40;100.00;99805.38;4979249;28;20453;-79
2022/11/21 01:31:46;;;;;;;18.83;6.78;;;;;;;6.40;100.00;99811.38;4979555;28;20054;-80
2022/11/21 01:34:13;;;;;;;22.45;6.30;;;;;;;6.37;100.00;99803.88;4978974;28;20082;-79
2022/11/21 01:36:40;;;;;;;20.25;7.53;;;;;;;6.40;100.00;99810.56;4979952;28;20050;-80
2022/11/21 01:39:08;;;;;;;21.58;6.15;;;;;;;6.42;100.00;99816.44;4980217;28;20086;-80
2022/11/21 01:41:37;;;;;;;15.80;5.43;;;;;;;6.39;100.00;99806.34;4977460;28;20097;-79
2022/11/21 01:44:14;;;;;;;14.07;5.95;;;;;;;6.29;100.00;99817.63;4978577;28;20047;-79
2022/11/21 01:46:41;;;;;;;23.33;6.20;;;;;;;6.19;100.00;99814.25;4977397;28;20142;-79
2022/11/21 01:49:11;;;;;;;18.90;5.53;;;;;;;6.16;100.00;99804.16;4977922;28;20089;-78
2022/11/21 01:51:42;;;;;;;19.50;5.60;;;;;;;6.17;100.00;99804.97;4977434;28;20057;-78
2022/11/21 01:54:14;;;;;;;15.68;7.00;;;;;;;6.11;100.00;99790.84;4979110;28;20089;-78
2022/11/21 01:56:49;;;;;;;20.80;5.78;;;;;;;6.11;100.00;99806.41;4980149;28;20086;-78
2022/11/21 01:59:21;;;;;;;19.25;6.07;;;;;;;6.14;100.00;99803.53;4979568;28;20165;-79
2022/11/21 02:01:54;;;;;;;21.23;6.43;;;;;;;6.17;100.00;99811.00;4978663;28;20070;-79
2022/11/21 02:04:24;;;;;;;17.83;5.70;;;;;;;6.15;100.00;99802.53;4978863;28;20050;-78
2022/11/21 02:06:51;;;;;;;24.65;6.60;;;;;;;6.13;100.00;99808.88;4978783;28;20061;-80
2022/11/21 02:09:19;;;;;;;20.13;6.20;;;;;;;6.12;100.00;99808.06;4977322;28;20077;-79
2022/11/21 02:11:52;;;;;;;21.77;5.95;;;;;;;6.11;100.00;99813.41;4977387;28;20047;-78
2022/11/21 02:14:18;;;;;;;24.30;6.25;;;;;;;6.03;100.00;99814.13;4978553;28;20138;-79
2022/11/21 02:16:46;;;;;;;22.23;6.30;;;;;;;6.06;100.00;99816.44;4978799;28;20165;-80
2022/11/21 02:19:28;;;;;;;16.10;5.72;;;;;;;6.07;100.00;99823.25;4980539;28;20057;-78
2022/11/21 02:22:01;;;;;;;16.17;5.57;;;;;;;6.05;100.00;99825.19;4977696;28;20498;-81
2022/11/21 02:24:32;;;;;;;19.33;5.32;;;;;;;6.07;100.00;99831.06;4978113;28;20469;-81
2022/11/21 02:27:00;;;;;;;14.98;5.43;;;;;;;6.11;100.00;99822.00;4978248;28;20133;-81
2022/11/21 02:29:27;;;;;;;13.45;5.05;;;;;;;6.04;100.00;99813.16;4977244;28;20130;-81
2022/11/21 02:31:54;;;;;;;17.17;5.55;;;;;;;6.06;100.00;99818.22;4977694;28;20133;-80
2022/11/21 02:34:20;;;;;;;13.05;5.20;;;;;;;6.01;100.00;99816.06;4978049;28;20078;-80
2022/11/21 02:36:47;;;;;;;12.50;4.78;;;;;;;5.99;100.00;99818.78;4977164;28;20138;-81
2022/11/21 02:39:19;;;;;;;20.98;5.78;;;;;;;5.94;100.00;99815.81;4976855;28;20134;-80
2022/11/21 02:41:56;;;;;;;14.02;4.95;;;;;;;5.91;100.00;99815.28;4977592;28;20078;-80
2022/11/21 02:44:29;;;;;;;13.73;5.05;;;;;;;5.88;100.00;99825.94;4975073;28;20130;-78
2022/11/21 02:46:56;;;;;;;13.20;5.00;;;;;;;5.86;100.00;99823.47;4974087;28;20489;-78
2022/11/21 02:49:31;;;;;;;17.80;5.07;;;;;;;5.88;100.00;99826.75;4974684;28;20457;-79
2022/11/21 02:51:58;;;;;;;23.88;5.07;;;;;;;5.95;100.00;99817.44;4976259;28;20106;-78
2022/11/21 02:54:24;;;;;;;13.77;4.75;;;;;;;5.96;100.00;99832.06;4973309;28;20110;-79
2022/11/21 02:56:51;;;;;;;19.23;6.05;;;;;;;5.98;100.00;99837.13;4973475;28;20113;-77
2022/11/21 02:59:18;;;;;;;13.10;4.65;;;;;;;6.01;100.00;99823.03;4975520;28;20573;-79
2022/11/21 03:01:46;;;;;;;16.85;4.80;;;;;;;6.05;100.00;99821.78;4976983;28;20133;-78
2022/11/21 03:04:12;;;;;;;12.48;5.38;;;;;;;6.05;100.00;99825.19;4976142;28;20135;-78
2022/11/21 03:06:39;;;;;;;14.57;4.93;;;;;;;6.02;100.00;99833.25;4976613;28;20082;-79
2022/11/21 03:09:05;;;;;;;18.23;5.13;;;;;;;6.01;100.00;99844.63;4975942;28;20061;-79
2022/11/21 03:11:32;;;;;;;14.05;5.07;;;;;;;5.94;100.00;99839.19;4976537;28;20078;-79
2022/11/21 03:13:59;;;;;;;18.17;4.90;;;;;;;6.02;100.00;99830.66;4978265;28;20059;-78
2022/11/21 03:16:25;;;;;;;14.57;5.35;;;;;;;5.99;100.00;99829.19;4980508;28;20086;-78
2022/11/21 03:18:54;;;;;;;14.63;5.55;;;;;;;6.01;100.00;99831.63;4981055;28;20051;-78
2022/11/21 03:21:20;;;;;;;14.82;5.07;;;;;;;5.96;100.00;99833.84;4977581;28;20064;-79
2022/11/21 03:23:47;;;;;;;14.00;4.72;;;;;;;5.97;100.00;99823.31;4979023;28;20129;-79
2022/11/21 03:26:14;;;;;;;14.27;5.15;;;;;;;5.97;100.00;99819.91;4977328;28;20078;-78
2022/11/21 03:28:42;;;;;;;9.27;4.72;;;;;;;6.00;100.00;99824.81;4973656;28;20411;-78
2022/11/21 03:31:08;;;;;;;13.10;4.82;;;;;;;6.06;100.00;99828.59;4974212;28;20046;-77
2022/11/21 03:33:35;;;;;;;18.38;4.88;;;;;;;6.06;100.00;99824.22;4972844;28;20481;-77
2022/11/21 03:36:03;;;;;;;13.68;4.60;;;;;;;5.98;100.00;99826.72;4973380;28;20377;-77
2022/11/21 03:38:30;;;;;;;19.73;4.72;;;;;;;6.01;100.00;99829.03;4972366;28;20093;-77
2022/11/21 03:40:56;;;;;;;13.02;4.50;;;;;;;5.98;100.00;99822.34;4974027;28;20050;-77
2022/11/21 03:43:23;;;;;;;11.65;5.00;;;;;;;5.90;100.00;99832.66;4973200;28;20458;-77
2022/11/21 03:45:53;;;;;;;14.00;5.25;;;;;;;5.99;100.00;99833.56;4974670;28;20074;-79
2022/11/21 03:48:20;;;;;;;9.52;4.88;;;;;;;5.93;100.00;99828.94;4977646;28;20081;-79
2022/11/21 03:50:46;;;;;;;14.23;5.00;;;;;;;5.95;100.00;99830.44;4977563;28;20074;-79
2022/11/21 03:53:14;;;;;;;11.15;4.80;;;;;;;5.88;100.00;99826.75;4977184;28;20261;-79
2022/11/21 03:55:45;;;;;;;16.15;4.70;;;;;;;5.88;100.00;99825.94;4976026;28;20065;-78
2022/11/21 03:58:12;;;;;;;15.18;4.65;;;;;;;5.90;100.00;99831.81;4975997;28;20081;-79
2022/11/21 04:00:38;;;;;;;14.50;5.40;;;;;;;5.86;100.00;99833.88;4974655;28;20126;-78
2022/11/21 04:03:05;;;;;;;13.18;4.85;;;;;;;5.85;100.00;99839.19;4975303;28;20181;-79
2022/11/21 04:05:31;;;;;;;12.02;4.93;;;;;;;5.86;100.00;99838.25;4975418;28;20082;-78
2022/11/21 04:07:59;;;;;;;17.17;5.22;;;;;;;5.81;100.00;99830.06;4975834;28;20564;-78
2022/11/21 04:10:26;;;;;;;12.85;5.05;;;;;;;5.79;100.00;99837.19;4976092;28;20054;-80
2022/11/21 04:12:53;;;;;;;10.15;5.20;;;;;;;5.80;100.00;99836.22;4976330;28;20134;-79
2022/11/21 04:15:20;;;;;;;15.23;4.88;;;;;;;5.79;100.00;99826.78;4976002;28;20141;-79
2022/11/21 04:17:46;;;;;;;15.18;4.75;;;;;;;5.81;100.00;99841.25;4976343;28;20089;-79
2022/11/21 04:20:13;;;;;;;16.70;6.20;;;;;;;5.72;100.00;99836.13;4975438;28;20106;-79
2022/11/21 04:25:05;;;;;;;13.98;5.80;;;;;;;5.78;100.00;99835.53;5020441;23;20054;-78
2022/11/21 04:27:33;;;;;;;13.02;5.85;;;;;;;5.77;100.00;99833.91;4996928;28;20378;-76
2022/11/21 04:30:00;;;;;;;16.10;6.13;;;;;;;5.75;100.00;99835.84;4994236;28;20133;-76
2022/11/21 04:32:27;;;;;;;14.77;6.68;;;;;;;5.80;100.00;99828.44;4994530;28;20165;-75
2022/11/21 04:34:53;;;;;;;17.35;6.88;;;;;;;5.77;100.00;99828.72;4976786;28;20586;-77
2022/11/21 04:37:20;;;;;;;16.85;7.72;;;;;;;5.79;100.00;99834.59;4975084;28;20074;-76
2022/11/21 04:39:46;;;;;;;21.23;7.68;;;;;;;5.77;100.00;99837.31;4974638;28;20047;-76
2022/11/21 04:42:13;;;;;;;16.58;7.38;;;;;;;5.76;100.00;99833.09;4975072;28;20133;-76
2022/11/21 04:44:41;;;;;;;16.75;8.63;;;;;;;5.77;100.00;99828.72;4975338;28;20169;-77
2022/11/21 04:47:08;;;;;;;20.52;7.95;;;;;;;5.80;100.00;99828.44;4974810;28;20143;-77
2022/11/21 04:49:34;;;;;;;19.63;8.52;;;;;;;5.75;100.00;99828.84;4974239;28;20142;-77
2022/11/21 04:52:01;;;;;;;19.20;8.27;;;;;;;5.76;100.00;99837.47;4975110;28;20093;-74
2022/11/21 04:54:27;;;;;;;24.00;9.75;;;;;;;5.78;100.00;99838.13;4975314;28;20137;-77
2022/11/21 04:56:54;;;;;;;16.92;10.85;;;;;;;5.77;100.00;99839.09;4974741;28;20085;-77
2022/11/21 04:59:21;;;;;;;27.63;11.38;;;;;;;5.80;100.00;99847.41;4974202;28;20540;-78
2022/11/21 05:01:49;;;;;;;24.13;10.82;;;;;;;5.79;100.00;99839.78;4974784;28;20146;-77
2022/11/21 05:04:15;;;;;;;24.08;13.25;;;;;;;5.83;100.00;99841.94;4974869;28;20053;-78
2022/11/21 05:06:42;;;;;;;26.85;12.80;;;;;;;5.89;100.00;99843.19;4974574;28;20082;-77
2022/11/21 05:09:08;;;;;;;21.13;11.23;;;;;;;5.94;100.00;99851.34;4974568;28;20134;-77
2022/11/21 05:14:19;;;;;;;19.45;9.48;;;;;;;5.92;100.00;99848.06;4975300;28;20109;-78
2022/11/21 05:16:46;;;;;;;20.15;10.50;;;;;;;5.87;100.00;99839.88;4974836;28;20090;-78
2022/11/21 05:19:14;;;;;;;16.60;9.45;;;;;;;5.83;100.00;99834.16;4974835;28;20093;-76
2022/11/21 05:21:40;;;;;;;18.20;10.13;;;;;;;5.80;100.00;99820.63;4975525;28;20129;-77
2022/11/21 05:24:07;;;;;;;17.52;9.85;;;;;;;5.87;100.00;99826.88;4974703;28;20133;-76
2022/11/21 05:26:34;;;;;;;21.00;10.02;;;;;;;5.79;100.00;99821.59;4974624;28;20131;-77
2022/11/21 05:29:01;;;;;;;21.75;10.23;;;;;;;5.71;100.00;99822.31;4974444;28;20083;-78
2022/11/21 05:31:27;;;;;;;22.98;10.52;;;;;;;5.74;100.00;99813.44;4974345;28;20106;-78
2022/11/21 05:33:54;;;;;;;19.67;10.93;;;;;;;5.62;100.00;99812.84;4973407;28;20150;-77
2022/11/21 05:36:22;;;;;;;26.08;11.98;;;;;;;5.63;100.00;99819.66;4974332;28;20560;-77
2022/11/21 05:38:49;;;;;;;25.55;13.32;;;;;;;5.69;100.00;99834.63;4974092;28;20157;-77
2022/11/21 05:41:15;;;;;;;29.30;14.48;;;;;;;5.77;100.00;99839.91;4974157;28;20051;-76
2022/11/21 05:43:47;;;;;;;25.70;12.88;;;;;;;5.83;100.00;99833.34;4974326;28;20085;-77
2022/11/21 05:46:16;;;;;;;28.80;12.50;;;;;;;5.84;100.00;99822.00;4973742;28;20406;-78
2022/11/21 05:48:43;;;;;;;22.48;12.00;;;;;;;5.84;100.00;99829.78;4973957;28;20086;-76
2022/11/21 05:51:10;;;;;;;23.27;13.18;;;;;;;5.86;100.00;99827.84;4974222;28;20049;-78
2022/11/21 05:53:38;;;;;;;23.42;13.20;;;;;;;5.91;100.00;99828.28;4974233;28;20089;-76
2022/11/21 05:56:07;;;;;;;26.20;11.73;;;;;;;5.89;100.00;99828.41;4974073;28;20078;-77
2022/11/21 05:58:34;;;;;;;22.90;11.57;;;;;;;5.84;100.00;99824.59;4973521;28;20486;-78
2022/11/21 06:01:06;;;;;;;29.73;12.32;;;;;;;5.89;100.00;99833.59;4974418;28;20142;-79
2022/11/21 06:03:34;;;;;;;23.25;11.55;;;;;;;5.91;100.00;99825.66;4974443;28;20101;-77
2022/11/21 06:06:06;;;;;;;22.42;12.02;;;;;;;5.90;100.00;99818.84;4974468;28;20098;-78
2022/11/21 06:08:35;;;;;;;21.63;12.20;;;;;;;5.94;100.00;99828.78;4973051;28;20098;-79
2022/11/21 06:11:05;;;;;;;21.40;11.63;;;;;;;5.86;100.00;99822.66;4973776;28;20145;-78
2022/11/21 06:13:32;;;;;;;20.35;12.00;;;;;;;5.93;100.00;99823.75;4974191;28;20142;-78
2022/11/21 06:16:01;;;;;;;23.63;13.18;;;;;;;5.95;100.00;99830.44;4974189;28;20050;-77
2022/11/21 06:18:29;;;;;;;24.52;13.95;;;;;;;5.93;100.00;99823.75;4973619;28;20133;-78
2022/11/21 06:21:01;;;;;;;22.40;11.73;;;;;;;5.93;100.00;99813.38;4974061;28;20137;-75
2022/11/21 06:23:27;;;;;;;22.75;12.60;;;;;;;5.94;100.00;99817.59;4973474;28;20047;-78
2022/11/21 06:25:57;;;;;;;22.35;11.45;;;;;;;5.96;100.00;99823.47;4973884;28;20074;-78
2022/11/21 06:28:25;;;;;;;18.33;11.48;;;;;;;5.94;100.00;99809.81;4973241;28;20054;-78
2022/11/21 06:30:51;;;;;;;20.92;12.18;;;;;;;5.90;100.00;99816.25;4973265;28;20129;-78
2022/11/21 06:33:18;;;;;;;17.73;10.70;;;;;;;5.91;100.00;99797.94;4975866;28;20153;-79
2022/11/21 06:35:45;;;;;;;19.17;11.27;;;;;;;5.88;100.00;99792.19;4976875;28;20137;-77
2022/11/21 06:38:12;;;;;;;20.42;11.60;;;;;;;5.88;100.00;99797.38;4979480;28;20046;-78
2022/11/21 06:40:39;;;;;;;19.30;10.55;;;;;;;5.93;100.00;99805.56;4974606;28;20489;-79
2022/11/21 06:43:05;;;;;;;21.48;10.88;;;;;;;5.88;100.00;99810.34;4973484;28;20141;-79
2022/11/21 06:45:33;;;;;;;16.48;10.50;;;;;;;5.86;100.00;99809.69;4972838;28;20125;-77
2022/11/21 06:48:01;;;;;;;20.45;10.95;;;;;;;5.89;100.00;99812.00;4972651;28;20425;-78
2022/11/21 06:50:29;;;;;;;21.02;11.15;;;;;;;5.91;100.00;99815.28;4973194;28;20070;-77
2022/11/21 06:52:57;;;;;;;19.63;11.02;;;;;;;5.95;100.00;99814.03;4972551;28;20189;-78
2022/11/21 06:55:24;;;;;;;21.17;11.05;;;;;;;5.90;100.00;99821.44;4972784;28;20072;-78
2022/11/21 06:57:50;;;;;;;19.85;11.40;;;;;;;5.98;100.00;99814.56;4972181;28;20055;-76
2022/11/21 07:00:18;;;;;;;24.77;12.50;;;;;;;5.94;100.00;99813.22;4972745;28;20050;-81
2022/11/21 07:02:46;;;;;;;19.50;12.25;;;;;;;6.00;100.00;99817.00;4973370;28;20046;-78
2022/11/21 07:05:12;;;;;;;26.15;13.98;;;;;;;6.01;100.00;99823.84;4972560;28;20153;-79
2022/11/21 07:07:39;;;;;;;21.58;13.55;;;;;;;5.96;100.00;99823.47;4972473;28;20086;-78
2022/11/21 07:10:06;;;;;;;24.23;13.82;;;;;;;5.98;100.00;99824.13;4972455;28;20068;-76
2022/11/21 07:15:18;;;;;;;20.90;13.63;;;;;;;6.02;100.00;99812.50;4988780;28;20540;-79
2022/11/21 07:17:46;;;;;;;34.72;21.25;;;;;;;6.03;100.00;99806.34;4974284;28;20054;-78
2022/11/21 07:20:13;;;;;;;22.90;15.88;;;;;;;6.01;100.00;99800.47;4971931;28;20114;-79
2022/11/21 07:22:40;;;;;;;21.83;13.68;;;;;;;5.98;100.00;99811.97;4971048;28;20054;-78
2022/11/21 07:25:06;;;;;;;27.08;17.30;;;;;;;6.02;100.00;99809.88;4970965;28;20153;-80
2022/11/21 07:27:33;;;;;;;27.70;16.63;;;;;;;5.99;100.00;99807.59;4949918;29;20195;-79
2022/11/21 07:30:00;;;;;;;22.33;13.77;;;;;;;6.01;100.00;99805.66;4951682;28;20097;-77
2022/11/21 07:32:27;;;;;;;19.23;13.52;;;;;;;6.04;100.00;99797.56;4968706;28;20057;-78
2022/11/21 07:34:55;;;;;;;19.40;13.48;;;;;;;6.04;100.00;99794.16;4971448;28;20523;-79
2022/11/21 07:37:21;;;;;;;21.50;12.80;;;;;;;6.05;100.00;99801.81;4972066;28;20142;-79
2022/11/21 07:39:48;;;;;;;19.08;12.05;;;;;;;6.09;100.00;99812.72;4971528;28;20600;-78
2022/11/21 07:42:14;;;;;;;21.23;13.48;;;;;;;6.05;100.00;99807.00;4976564;28;20051;-78
2022/11/21 07:44:41;;;;;;;28.27;14.05;;;;;;;6.06;100.00;99813.84;4972429;28;20137;-78
2022/11/21 07:47:08;;;;;;;18.10;13.65;;;;;;;6.04;100.00;99800.19;4970939;28;20066;-77
2022/11/21 07:49:35;;;;;;;22.30;14.30;;;;;;;5.97;100.00;99793.94;4971345;28;20058;-78
2022/11/21 07:52:03;;;;;;;21.73;12.85;;;;;;;6.03;100.00;99803.72;4954135;28;20051;-77
2022/11/21 07:54:30;;;;;;;19.77;12.63;;;;;;;6.13;100.00;99803.69;4969576;28;20086;-77
2022/11/21 07:56:57;;;;;;;23.65;13.10;;;;;;;6.05;100.00;99790.59;4973465;28;20077;-78
2022/11/21 07:59:23;;;;;;;18.85;12.60;;;;;;;6.00;100.00;99798.84;4975399;28;20138;-78
2022/11/21 08:01:50;;;;;;;23.77;13.93;;;;;;;5.99;100.00;99792.81;4974584;28;20057;-78
2022/11/21 08:04:18;;;;;;;20.20;12.15;;;;;;;6.10;100.00;99786.59;4976541;28;20133;-77
2022/11/21 08:06:45;;;;;;;23.55;12.82;;;;;;;6.05;100.00;99778.44;4975973;28;20137;-78
2022/11/21 08:09:13;;;;;;;15.43;11.65;;;;;;;6.08;100.00;99775.53;4975412;28;20133;-78
2022/11/21 08:11:39;;;;;;;21.60;12.25;;;;;;;6.12;100.00;99787.28;4974837;28;20134;-80
2022/11/21 08:14:06;;;;;;;20.75;12.63;;;;;;;6.12;100.00;99789.88;4975576;28;20132;-77
2022/11/21 08:16:32;;;;;;;18.52;11.80;;;;;;;6.14;100.00;99785.34;4962067;28;20142;-78
2022/11/21 08:18:59;;;;;;;23.45;12.77;;;;;;;6.14;100.00;99782.75;4956170;29;20055;-76
2022/11/21 08:21:26;;;;;;;21.50;13.13;;;;;;;6.12;100.00;99789.06;4956131;29;20078;-77
2022/11/21 08:23:52;;;;;;;24.38;13.18;;;;;;;6.09;100.00;99777.19;4970014;28;20055;-78
2022/11/21 08:26:21;;;;;;;23.10;13.43;;;;;;;6.14;100.00;99785.34;4969773;28;20094;-76
2022/11/21 08:28:47;;;;;;;25.23;13.75;;;;;;;6.08;100.00;99780.75;4972298;28;20050;-78
2022/11/21 08:31:14;;;;;;;18.20;12.82;;;;;;;6.12;100.00;99791.66;4972683;28;20146;-75
2022/11/21 08:33:40;;;;;;;22.45;13.55;;;;;;;6.06;100.00;99787.03;4971357;28;20162;-81
2022/11/21 08:36:08;;;;;;;22.23;13.35;;;;;;;6.14;100.00;99790.53;4973689;28;20101;-79
2022/11/21 08:38:34;;;;;;;24.88;14.80;;;;;;;6.07;100.00;99779.09;4973714;28;20065;-77
2022/11/21 08:43:58;;;;;;;24.75;14.65;;;;;;;6.27;100.00;99788.38;4933151;29;20048;-78
2022/11/21 08:46:27;;;;;;;21.90;13.63;;;;;;;6.28;100.00;99782.22;4964477;28;20497;-79
2022/11/21 08:48:54;;;;;;;22.42;13.85;;;;;;;6.33;100.00;99774.78;4974451;28;20051;-76
2022/11/21 08:51:20;;;;;;;20.60;13.52;;;;;;;6.41;100.00;99776.63;4974551;28;20058;-79
2022/11/21 08:53:47;;;;;;;24.73;14.25;;;;;;;6.43;100.00;99772.09;4974115;28;20078;-77
2022/11/21 08:56:13;;;;;;;25.65;14.00;;;;;;;6.41;100.00;99768.84;4974913;28;20429;-76
2022/11/21 08:58:40;;;;;;;22.48;14.20;;;;;;;6.43;100.00;99773.88;4974011;28;20051;-79
2022/11/21 09:01:08;;;;;;;22.80;14.35;;;;;;;6.46;100.00;99766.63;4979638;28;20121;-75
2022/11/21 09:03:35;;;;;;;23.20;14.63;;;;;;;6.53;100.00;99764.22;4977934;28;20421;-78
2022/11/21 09:06:01;;;;;;;20.92;13.73;;;;;;;6.56;100.00;99754.34;4973447;28;20062;-76
2022/11/21 09:08:29;;;;;;;23.80;15.75;;;;;;;6.62;100.00;99763.28;4972507;28;20157;-77
2022/11/21 09:10:56;;;;;;;24.42;14.70;;;;;;;6.75;100.00;99742.91;4972665;28;20145;-75
2022/11/21 09:13:23;;;;;;;24.73;14.90;;;;;;;6.84;100.00;99749.81;4972254;28;20141;-78
2022/11/21 09:18:35;;;;;;;24.52;13.35;;;;;;;6.95;100.00;99739.16;4972651;28;20078;-77
2022/11/21 09:21:02;;;;;;;22.27;13.27;;;;;;;6.96;100.00;99729.56;4968194;28;20155;-77
2022/11/21 09:23:28;;;;;;;23.40;14.10;;;;;;;7.01;100.00;99740.31;4972721;28;20173;-78
2022/11/21 09:25:55;;;;;;;21.48;12.70;;;;;;;7.28;100.00;99739.28;4972777;28;20130;-78
2022/11/21 09:28:21;;;;;;;16.77;12.07;;;;;;;7.45;100.00;99725.38;4972528;28;20504;-78
2022/11/21 09:30:48;;;;;;;19.67;11.23;;;;;;;7.53;100.00;99730.63;4971058;28;20406;-78
2022/11/21 09:33:16;;;;;;;17.63;11.45;;;;;;;7.62;100.00;99732.25;4972594;28;20075;-79
2022/11/21 09:35:44;;;;;;;18.27;11.18;;;;;;;7.56;100.00;99732.09;4974243;28;20513;-78
2022/11/21 09:38:14;;;;;;;18.35;10.38;;;;;;;7.74;99.86;99730.16;4975116;28;20126;-77
2022/11/21 09:40:44;;;;;;;18.05;10.70;;;;;;;7.85;99.49;99727.25;4969428;28;20051;-78
2022/11/21 09:43:34;;;;;;;18.95;9.68;;;;;;;8.05;98.87;99721.72;4972096;28;20047;-78
2022/11/21 09:46:05;;;;;;;13.32;8.85;;;;;;;8.18;98.01;99725.50;4972465;28;20047;-79
2022/11/21 09:48:40;;;;;;;14.48;8.80;;;;;;;8.27;97.15;99719.31;4973064;28;20043;-78
2022/11/21 09:51:13;;;;;;;18.58;9.95;;;;;;;8.20;96.29;99720.13;4972436;28;20599;-77
2022/11/21 09:53:53;;;;;;;16.30;9.02;;;;;;;8.34;95.73;99723.91;4970166;28;20126;-78
2022/11/21 09:56:25;;;;;;;13.95;8.88;;;;;;;8.47;95.22;99721.63;4969201;28;20090;-78
2022/11/21 09:59:06;;;;;;;15.95;8.70;;;;;;;8.70;94.96;99717.34;4971702;28;20125;-78
2022/11/21 10:01:33;;;;;;;17.08;8.38;;;;;;;8.56;94.54;99720.59;4975218;28;20134;-77
2022/11/21 10:04:02;;;;;;;17.50;9.45;;;;;;;8.72;94.40;99710.16;4968041;28;20078;-79
2022/11/21 10:06:36;;;;;;;13.93;8.07;;;;;;;8.74;94.06;99710.00;4972118;28;20055;-78
2022/11/21 10:09:09;;;;;;;13.77;8.00;;;;;;;8.81;94.17;99710.97;4969381;28;20470;-79
2022/11/21 10:14:32;;;;;;;10.20;6.85;;;;;;;9.01;93.20;99703.53;4972154;28;20043;-78
2022/11/21 10:17:07;;;;;;;9.75;7.30;;;;;;;9.13;92.32;99696.97;4974937;28;20149;-78
2022/11/21 10:19:48;;;;;;;15.13;6.78;;;;;;;9.09;91.51;99682.63;4972054;28;20310;-79
2022/11/21 10:22:52;;;;;;;11.55;6.53;;;;;;;9.25;91.19;99674.75;4970209;28;20065;-79
2022/11/21 10:25:24;;;;;;;13.50;5.85;;;;;;;9.12;90.55;99671.88;5027547;23;20122;-79
2022/11/21 10:27:57;;;;;;;11.98;6.00;;;;;;;8.98;91.05;99674.19;5000967;28;20082;-79
2022/11/21 10:30:23;;;;;;;8.80;5.70;;;;;;;9.06;91.75;99681.19;5000301;28;20097;-80
2022/11/21 10:32:53;;;;;;;13.52;5.40;;;;;;;9.10;90.81;99677.25;5001545;28;20108;-80
2022/11/21 10:35:23;;;;;;;9.48;4.90;;;;;;;9.28;90.40;99662.16;4986343;28;20078;-79
2022/11/21 10:37:53;;;;;;;11.48;4.82;;;;;;;9.25;89.64;99653.88;4975431;28;20070;-77
2022/11/21 10:40:35;;;;;;;12.65;5.03;;;;;;;9.15;89.10;99645.44;4977910;28;20070;-78
2022/11/21 10:45:15;;;;;;;10.02;4.60;;;;;;;9.15;89.22;99648.84;4977169;28;20147;-77
2022/11/21 10:45:52;;;;;;;7.60;4.60;;;;;;;9.13;89.54;99639.56;4979701;28;20058;-78
2022/11/21 10:48:19;;;;;;;8.75;4.25;;;;;;;9.01;89.28;99635.69;4983986;28;20063;-80
2022/11/21 10:50:58;;;;;;;9.43;4.25;;;;;;;9.04;88.62;99630.94;4976665;28;20061;-80
2022/11/21 10:56:14;;;;;;;10.07;3.80;;;;;;;9.06;88.29;99618.56;4974747;28;20058;-79
2022/11/21 10:58:43;;;;;;;9.85;4.00;;;;;;;8.97;89.01;99615.19;4980735;28;20066;-79
2022/11/21 11:01:26;;;;;;;11.57;3.78;;;;;;;8.90;89.01;99614.25;4983897;28;20137;-78
2022/11/21 11:04:07;;;;;;;6.88;3.70;;;;;;;8.79;88.95;99605.97;4999249;28;20113;-78
2022/11/21 11:06:34;;;;;;;8.15;4.07;;;;;;;8.68;88.52;99603.72;4982785;28;20054;-78
2022/11/21 11:09:03;;;;;;;9.82;4.25;;;;;;;8.59;89.12;99600.31;4985468;28;20057;-78
2022/11/21 11:11:30;;;;;;;7.30;3.53;;;;;;;8.65;89.25;99590.03;4986788;28;20058;-77
2022/11/21 11:14:00;;;;;;;10.43;3.60;;;;;;;8.62;88.91;99576.53;4977619;28;20054;-77
2022/11/21 11:16:31;;;;;;;7.93;3.45;;;;;;;8.58;89.28;99573.44;4987732;28;20063;-79
2022/11/21 11:19:00;;;;;;;9.25;3.50;;;;;;;8.57;89.79;99576.22;4985963;28;20073;-79
2022/11/21 11:21:29;;;;;;;7.22;3.30;;;;;;;8.61;89.76;99567.06;4977774;28;20066;-78
2022/11/21 11:24:20;;;;;;;11.52;4.22;;;;;;;8.60;89.85;99568.06;4978968;28;20767;-79
2022/11/21 11:26:52;;;;;;;9.38;3.60;;;;;;;8.71;89.76;99561.66;4978983;28;20142;-76
2022/11/21 11:29:20;;;;;;;9.23;3.55;;;;;;;8.83;89.26;99549.88;4973200;28;20050;-78
2022/11/21 11:31:53;;;;;;;8.60;3.85;;;;;;;8.90;89.43;99546.41;4977596;28;20067;-79
2022/11/21 11:34:20;;;;;;;5.80;2.70;;;;;;;8.94;87.59;99545.09;4976937;28;20093;-77
2022/11/21 11:36:55;;;;;;;6.63;3.00;;;;;;;9.13;87.77;99535.97;4979546;28;20549;-78
2022/11/21 11:39:37;;;;;;;6.35;3.08;;;;;;;9.27;86.73;99537.03;4978365;28;20097;-78
2022/11/21 11:48:10;;;;;;;7.07;2.92;;;;;;;9.62;84.30;99519.94;4973939;28;19975;-78
2022/11/21 11:50:41;;;;;;;6.20;3.08;;;;;;;9.71;83.78;99518.06;4976353;28;20058;-77
2022/11/21 11:53:14;;;;;;;3.75;2.40;;;;;;;9.69;82.47;99518.25;4976383;28;20102;-78
2022/11/21 11:55:46;;;;;;;5.97;2.83;;;;;;;9.52;83.48;99511.53;4977458;28;20050;-77